sensor_id;sensor_type;location;lat;lon;timestamp;P1;durP1;ratioP1;P2;durP2;ratioP2
54454;SDS011;40364;52.270;10.546;2022-10-30T00:01:08;14.32;;;5.80;;
54454;SDS011;40364;52.270;10.546;2022-10-30T00:03:35;19.33;;;7.22;;
54454;SDS011;40364;52.270;10.546;2022-10-30T00:06:02;15.38;;;6.47;;
54454;SDS011;40364;52.270;10.546;2022-10-30T00:08:30;16.63;;;6.38;;
54454;SDS011;40364;52.270;10.546;2022-10-30T00:11:03;13.75;;;6.47;;
54454;SDS011;40364;52.270;10.546;2022-10-30T00:13:32;14.00;;;6.60;;
54454;SDS011;40364;52.270;10.546;2022-10-30T00:15:58;14.57;;;6.10;;
54454;SDS011;40364;52.270;10.546;2022-10-30T00:18:27;18.52;;;6.30;;
54454;SDS011;40364;52.270;10.546;2022-10-30T00:20:54;20.38;;;6.38;;
54454;SDS011;40364;52.270;10.546;2022-10-30T00:23:21;14.48;;;5.90;;
54454;SDS011;40364;52.270;10.546;2022-10-30T00:25:47;19.95;;;6.35;;
54454;SDS011;40364;52.270;10.546;2022-10-30T00:28:14;15.82;;;6.50;;
54454;SDS011;40364;52.270;10.546;2022-10-30T00:30:42;12.88;;;6.18;;
54454;SDS011;40364;52.270;10.546;2022-10-30T00:33:09;16.63;;;5.68;;
54454;SDS011;40364;52.270;10.546;2022-10-30T00:35:35;13.18;;;6.35;;
54454;SDS011;40364;52.270;10.546;2022-10-30T00:38:02;19.13;;;6.80;;
54454;SDS011;40364;52.270;10.546;2022-10-30T00:40:29;10.95;;;6.60;;
54454;SDS011;40364;52.270;10.546;2022-10-30T00:42:55;15.57;;;6.65;;
54454;SDS011;40364;52.270;10.546;2022-10-30T00:45:22;13.57;;;7.30;;
54454;SDS011;40364;52.270;10.546;2022-10-30T00:47:52;18.10;;;7.28;;
54454;SDS011;40364;52.270;10.546;2022-10-30T00:50:22;22.48;;;8.20;;
54454;SDS011;40364;52.270;10.546;2022-10-30T00:52:53;17.92;;;6.75;;
54454;SDS011;40364;52.270;10.546;2022-10-30T00:55:24;16.48;;;7.50;;
54454;SDS011;40364;52.270;10.546;2022-10-30T00:57:57;14.52;;;6.25;;
54454;SDS011;40364;52.270;10.546;2022-10-30T01:00:26;14.40;;;7.05;;
54454;SDS011;40364;52.270;10.546;2022-10-30T01:02:56;16.90;;;6.90;;
54454;SDS011;40364;52.270;10.546;2022-10-30T01:05:24;19.92;;;6.13;;
54454;SDS011;40364;52.270;10.546;2022-10-30T01:07:55;36.22;;;7.63;;
54454;SDS011;40364;52.270;10.546;2022-10-30T01:10:22;16.35;;;6.88;;
54454;SDS011;40364;52.270;10.546;2022-10-30T01:12:49;14.80;;;6.45;;
54454;SDS011;40364;52.270;10.546;2022-10-30T01:15:20;22.83;;;6.80;;
54454;SDS011;40364;52.270;10.546;2022-10-30T01:18:01;15.10;;;6.10;;
54454;SDS011;40364;52.270;10.546;2022-10-30T01:20:48;14.93;;;6.43;;
54454;SDS011;40364;52.270;10.546;2022-10-30T01:23:31;19.90;;;6.95;;
54454;SDS011;40364;52.270;10.546;2022-10-30T01:26:07;20.20;;;6.60;;
54454;SDS011;40364;52.270;10.546;2022-10-30T01:28:54;16.58;;;6.82;;
54454;SDS011;40364;52.270;10.546;2022-10-30T01:31:39;16.80;;;7.10;;
54454;SDS011;40364;52.270;10.546;2022-10-30T01:34:18;15.35;;;6.13;;
54454;SDS011;40364;52.270;10.546;2022-10-30T01:36:48;16.85;;;6.72;;
54454;SDS011;40364;52.270;10.546;2022-10-30T01:41:50;16.85;;;6.50;;
54454;SDS011;40364;52.270;10.546;2022-10-30T01:44:17;22.42;;;6.80;;
54454;SDS011;40364;52.270;10.546;2022-10-30T01:46:50;16.98;;;8.15;;
54454;SDS011;40364;52.270;10.546;2022-10-30T01:52:27;23.05;;;6.78;;
54454;SDS011;40364;52.270;10.546;2022-10-30T01:55:05;12.52;;;6.13;;
54454;SDS011;40364;52.270;10.546;2022-10-30T01:57:43;16.92;;;7.15;;
54454;SDS011;40364;52.270;10.546;2022-10-30T02:00:17;14.87;;;6.83;;
54454;SDS011;40364;52.270;10.546;2022-10-30T02:02:44;15.35;;;6.60;;
54454;SDS011;40364;52.270;10.546;2022-10-30T02:05:13;12.98;;;6.43;;
54454;SDS011;40364;52.270;10.546;2022-10-30T02:10:13;15.02;;;6.68;;
54454;SDS011;40364;52.270;10.546;2022-10-30T02:12:39;17.10;;;6.45;;
54454;SDS011;40364;52.270;10.546;2022-10-30T02:15:07;14.50;;;5.88;;
54454;SDS011;40364;52.270;10.546;2022-10-30T02:17:35;15.15;;;6.55;;
54454;SDS011;40364;52.270;10.546;2022-10-30T02:20:03;12.57;;;6.32;;
54454;SDS011;40364;52.270;10.546;2022-10-30T02:22:32;20.70;;;6.90;;
54454;SDS011;40364;52.270;10.546;2022-10-30T02:24:59;18.08;;;6.22;;
54454;SDS011;40364;52.270;10.546;2022-10-30T02:27:25;13.23;;;5.85;;
54454;SDS011;40364;52.270;10.546;2022-10-30T02:29:52;15.65;;;7.38;;
54454;SDS011;40364;52.270;10.546;2022-10-30T02:32:19;18.75;;;6.38;;
54454;SDS011;40364;52.270;10.546;2022-10-30T02:34:45;14.82;;;6.50;;
54454;SDS011;40364;52.270;10.546;2022-10-30T02:37:12;13.02;;;6.60;;
54454;SDS011;40364;52.270;10.546;2022-10-30T02:39:40;11.52;;;5.97;;
54454;SDS011;40364;52.270;10.546;2022-10-30T02:42:06;13.13;;;5.82;;
54454;SDS011;40364;52.270;10.546;2022-10-30T02:44:33;13.50;;;6.10;;
54454;SDS011;40364;52.270;10.546;2022-10-30T02:47:00;17.70;;;6.93;;
54454;SDS011;40364;52.270;10.546;2022-10-30T02:49:26;19.33;;;7.40;;
54454;SDS011;40364;52.270;10.546;2022-10-30T02:51:53;15.50;;;6.43;;
54454;SDS011;40364;52.270;10.546;2022-10-30T02:54:20;15.65;;;5.53;;
54454;SDS011;40364;52.270;10.546;2022-10-30T02:56:48;13.93;;;6.65;;
54454;SDS011;40364;52.270;10.546;2022-10-30T02:59:14;16.15;;;7.18;;
54454;SDS011;40364;52.270;10.546;2022-10-30T03:01:41;14.55;;;6.75;;
54454;SDS011;40364;52.270;10.546;2022-10-30T03:04:08;29.77;;;7.63;;
54454;SDS011;40364;52.270;10.546;2022-10-30T03:06:35;14.77;;;6.20;;
54454;SDS011;40364;52.270;10.546;2022-10-30T03:09:01;12.93;;;5.60;;
54454;SDS011;40364;52.270;10.546;2022-10-30T03:11:28;17.67;;;7.10;;
54454;SDS011;40364;52.270;10.546;2022-10-30T03:13:56;12.68;;;5.70;;
54454;SDS011;40364;52.270;10.546;2022-10-30T03:16:24;17.33;;;6.90;;
54454;SDS011;40364;52.270;10.546;2022-10-30T03:18:53;14.00;;;5.57;;
54454;SDS011;40364;52.270;10.546;2022-10-30T03:21:21;15.30;;;6.22;;
54454;SDS011;40364;52.270;10.546;2022-10-30T03:23:49;16.98;;;6.45;;
54454;SDS011;40364;52.270;10.546;2022-10-30T03:26:16;15.00;;;6.75;;
54454;SDS011;40364;52.270;10.546;2022-10-30T03:28:44;18.27;;;6.25;;
54454;SDS011;40364;52.270;10.546;2022-10-30T03:31:12;14.68;;;6.57;;
54454;SDS011;40364;52.270;10.546;2022-10-30T03:33:41;13.48;;;6.05;;
54454;SDS011;40364;52.270;10.546;2022-10-30T03:36:09;13.77;;;5.80;;
54454;SDS011;40364;52.270;10.546;2022-10-30T03:38:37;12.38;;;5.88;;
54454;SDS011;40364;52.270;10.546;2022-10-30T03:41:03;16.80;;;6.05;;
54454;SDS011;40364;52.270;10.546;2022-10-30T03:43:31;10.70;;;5.32;;
54454;SDS011;40364;52.270;10.546;2022-10-30T03:45:58;11.35;;;5.65;;
54454;SDS011;40364;52.270;10.546;2022-10-30T03:48:27;11.27;;;6.05;;
54454;SDS011;40364;52.270;10.546;2022-10-30T03:50:55;13.38;;;5.65;;
54454;SDS011;40364;52.270;10.546;2022-10-30T03:53:23;12.90;;;5.65;;
54454;SDS011;40364;52.270;10.546;2022-10-30T03:55:51;13.55;;;5.80;;
54454;SDS011;40364;52.270;10.546;2022-10-30T03:58:17;15.25;;;5.78;;
54454;SDS011;40364;52.270;10.546;2022-10-30T04:00:44;10.73;;;5.15;;
54454;SDS011;40364;52.270;10.546;2022-10-30T04:03:11;15.60;;;5.30;;
54454;SDS011;40364;52.270;10.546;2022-10-30T04:05:39;14.90;;;4.70;;
54454;SDS011;40364;52.270;10.546;2022-10-30T04:08:09;14.27;;;4.70;;
54454;SDS011;40364;52.270;10.546;2022-10-30T04:10:40;16.35;;;4.68;;
54454;SDS011;40364;52.270;10.546;2022-10-30T04:13:08;12.88;;;4.32;;
54454;SDS011;40364;52.270;10.546;2022-10-30T04:15:36;13.50;;;4.95;;
54454;SDS011;40364;52.270;10.546;2022-10-30T04:18:03;13.85;;;4.30;;
54454;SDS011;40364;52.270;10.546;2022-10-30T04:20:30;10.30;;;4.35;;
54454;SDS011;40364;52.270;10.546;2022-10-30T04:22:59;14.70;;;4.55;;
54454;SDS011;40364;52.270;10.546;2022-10-30T04:25:27;13.68;;;4.20;;
54454;SDS011;40364;52.270;10.546;2022-10-30T04:27:54;18.77;;;4.57;;
54454;SDS011;40364;52.270;10.546;2022-10-30T04:30:21;17.60;;;4.00;;
54454;SDS011;40364;52.270;10.546;2022-10-30T04:32:49;10.25;;;4.32;;
54454;SDS011;40364;52.270;10.546;2022-10-30T04:35:18;11.52;;;4.22;;
54454;SDS011;40364;52.270;10.546;2022-10-30T04:37:50;8.52;;;3.80;;
54454;SDS011;40364;52.270;10.546;2022-10-30T04:40:19;13.73;;;4.75;;
54454;SDS011;40364;52.270;10.546;2022-10-30T04:42:46;15.45;;;4.60;;
54454;SDS011;40364;52.270;10.546;2022-10-30T04:45:13;10.45;;;3.47;;
54454;SDS011;40364;52.270;10.546;2022-10-30T04:47:40;10.48;;;4.00;;
54454;SDS011;40364;52.270;10.546;2022-10-30T04:50:07;18.58;;;4.00;;
54454;SDS011;40364;52.270;10.546;2022-10-30T04:52:34;13.38;;;4.20;;
54454;SDS011;40364;52.270;10.546;2022-10-30T04:55:01;13.50;;;4.03;;
54454;SDS011;40364;52.270;10.546;2022-10-30T04:57:29;12.13;;;4.13;;
54454;SDS011;40364;52.270;10.546;2022-10-30T04:59:56;12.20;;;4.00;;
54454;SDS011;40364;52.270;10.546;2022-10-30T05:02:23;13.32;;;4.32;;
54454;SDS011;40364;52.270;10.546;2022-10-30T05:04:50;11.25;;;4.05;;
54454;SDS011;40364;52.270;10.546;2022-10-30T05:07:16;8.15;;;3.70;;
54454;SDS011;40364;52.270;10.546;2022-10-30T05:09:43;13.50;;;3.72;;
54454;SDS011;40364;52.270;10.546;2022-10-30T05:12:10;9.93;;;4.45;;
54454;SDS011;40364;52.270;10.546;2022-10-30T05:14:38;20.42;;;3.85;;
54454;SDS011;40364;52.270;10.546;2022-10-30T05:17:05;11.63;;;3.90;;
54454;SDS011;40364;52.270;10.546;2022-10-30T05:19:31;16.00;;;4.60;;
54454;SDS011;40364;52.270;10.546;2022-10-30T05:21:58;18.83;;;4.38;;
54454;SDS011;40364;52.270;10.546;2022-10-30T05:24:25;12.05;;;4.10;;
54454;SDS011;40364;52.270;10.546;2022-10-30T05:26:51;11.63;;;3.72;;
54454;SDS011;40364;52.270;10.546;2022-10-30T05:29:18;13.88;;;4.43;;
54454;SDS011;40364;52.270;10.546;2022-10-30T05:31:46;10.52;;;4.47;;
54454;SDS011;40364;52.270;10.546;2022-10-30T05:34:13;12.00;;;5.35;;
54454;SDS011;40364;52.270;10.546;2022-10-30T05:36:39;14.95;;;3.90;;
54454;SDS011;40364;52.270;10.546;2022-10-30T05:39:06;10.95;;;3.90;;
54454;SDS011;40364;52.270;10.546;2022-10-30T05:41:33;9.32;;;3.97;;
54454;SDS011;40364;52.270;10.546;2022-10-30T05:43:59;12.48;;;4.30;;
54454;SDS011;40364;52.270;10.546;2022-10-30T05:46:26;16.52;;;3.42;;
54454;SDS011;40364;52.270;10.546;2022-10-30T05:48:54;10.30;;;3.85;;
54454;SDS011;40364;52.270;10.546;2022-10-30T05:51:21;7.88;;;3.20;;
54454;SDS011;40364;52.270;10.546;2022-10-30T05:53:48;12.15;;;4.10;;
54454;SDS011;40364;52.270;10.546;2022-10-30T05:56:14;14.20;;;4.68;;
54454;SDS011;40364;52.270;10.546;2022-10-30T05:58:41;10.40;;;4.00;;
54454;SDS011;40364;52.270;10.546;2022-10-30T06:01:07;13.32;;;3.72;;
54454;SDS011;40364;52.270;10.546;2022-10-30T06:03:34;12.30;;;3.33;;
54454;SDS011;40364;52.270;10.546;2022-10-30T06:06:02;11.52;;;3.65;;
54454;SDS011;40364;52.270;10.546;2022-10-30T06:08:29;7.70;;;3.55;;
54454;SDS011;40364;52.270;10.546;2022-10-30T06:10:56;16.08;;;3.80;;
54454;SDS011;40364;52.270;10.546;2022-10-30T06:13:25;15.25;;;4.10;;
54454;SDS011;40364;52.270;10.546;2022-10-30T06:15:53;16.17;;;4.28;;
54454;SDS011;40364;52.270;10.546;2022-10-30T06:18:20;16.75;;;4.32;;
54454;SDS011;40364;52.270;10.546;2022-10-30T06:20:47;12.52;;;3.30;;
54454;SDS011;40364;52.270;10.546;2022-10-30T06:23:16;14.82;;;3.72;;
54454;SDS011;40364;52.270;10.546;2022-10-30T06:25:42;11.65;;;3.88;;
54454;SDS011;40364;52.270;10.546;2022-10-30T06:28:09;14.35;;;4.15;;
54454;SDS011;40364;52.270;10.546;2022-10-30T06:30:37;17.25;;;4.03;;
54454;SDS011;40364;52.270;10.546;2022-10-30T06:33:04;16.67;;;4.13;;
54454;SDS011;40364;52.270;10.546;2022-10-30T06:35:31;11.00;;;3.70;;
54454;SDS011;40364;52.270;10.546;2022-10-30T06:37:58;12.68;;;4.82;;
54454;SDS011;40364;52.270;10.546;2022-10-30T06:40:26;11.75;;;3.60;;
54454;SDS011;40364;52.270;10.546;2022-10-30T06:42:54;13.57;;;4.20;;
54454;SDS011;40364;52.270;10.546;2022-10-30T06:45:21;17.77;;;4.07;;
54454;SDS011;40364;52.270;10.546;2022-10-30T06:47:49;10.55;;;3.50;;
54454;SDS011;40364;52.270;10.546;2022-10-30T06:50:16;16.35;;;4.55;;
54454;SDS011;40364;52.270;10.546;2022-10-30T06:52:44;9.60;;;3.80;;
54454;SDS011;40364;52.270;10.546;2022-10-30T06:55:12;13.38;;;3.67;;
54454;SDS011;40364;52.270;10.546;2022-10-30T06:57:40;11.18;;;4.38;;
54454;SDS011;40364;52.270;10.546;2022-10-30T07:00:07;8.18;;;3.95;;
54454;SDS011;40364;52.270;10.546;2022-10-30T07:02:34;12.23;;;3.40;;
54454;SDS011;40364;52.270;10.546;2022-10-30T07:05:01;8.50;;;3.35;;
54454;SDS011;40364;52.270;10.546;2022-10-30T07:07:28;9.10;;;3.60;;
54454;SDS011;40364;52.270;10.546;2022-10-30T07:09:54;9.85;;;4.45;;
54454;SDS011;40364;52.270;10.546;2022-10-30T07:12:21;9.20;;;3.78;;
54454;SDS011;40364;52.270;10.546;2022-10-30T07:14:49;16.65;;;4.43;;
54454;SDS011;40364;52.270;10.546;2022-10-30T07:17:16;10.00;;;4.07;;
54454;SDS011;40364;52.270;10.546;2022-10-30T07:19:42;7.93;;;3.72;;
54454;SDS011;40364;52.270;10.546;2022-10-30T07:22:09;8.40;;;3.42;;
54454;SDS011;40364;52.270;10.546;2022-10-30T07:24:36;14.00;;;4.28;;
54454;SDS011;40364;52.270;10.546;2022-10-30T07:27:02;9.80;;;3.65;;
54454;SDS011;40364;52.270;10.546;2022-10-30T07:29:29;11.18;;;4.07;;
54454;SDS011;40364;52.270;10.546;2022-10-30T07:31:57;15.35;;;4.40;;
54454;SDS011;40364;52.270;10.546;2022-10-30T07:34:24;18.83;;;5.00;;
54454;SDS011;40364;52.270;10.546;2022-10-30T07:36:51;14.95;;;4.05;;
54454;SDS011;40364;52.270;10.546;2022-10-30T07:39:17;14.45;;;4.13;;
54454;SDS011;40364;52.270;10.546;2022-10-30T07:41:44;15.82;;;5.07;;
54454;SDS011;40364;52.270;10.546;2022-10-30T07:44:10;10.55;;;3.97;;
54454;SDS011;40364;52.270;10.546;2022-10-30T07:46:37;14.07;;;4.32;;
54454;SDS011;40364;52.270;10.546;2022-10-30T07:49:05;13.57;;;4.70;;
54454;SDS011;40364;52.270;10.546;2022-10-30T07:51:32;11.00;;;3.95;;
54454;SDS011;40364;52.270;10.546;2022-10-30T07:53:59;16.83;;;3.88;;
54454;SDS011;40364;52.270;10.546;2022-10-30T07:56:25;14.13;;;3.92;;
54454;SDS011;40364;52.270;10.546;2022-10-30T07:58:52;9.63;;;4.35;;
54454;SDS011;40364;52.270;10.546;2022-10-30T08:01:19;12.52;;;3.95;;
54454;SDS011;40364;52.270;10.546;2022-10-30T08:03:45;12.57;;;4.68;;
54454;SDS011;40364;52.270;10.546;2022-10-30T08:06:13;15.48;;;4.75;;
54454;SDS011;40364;52.270;10.546;2022-10-30T08:08:40;9.65;;;4.00;;
54454;SDS011;40364;52.270;10.546;2022-10-30T08:11:07;12.85;;;4.53;;
54454;SDS011;40364;52.270;10.546;2022-10-30T08:13:33;11.57;;;4.47;;
54454;SDS011;40364;52.270;10.546;2022-10-30T08:16:00;9.30;;;3.78;;
54454;SDS011;40364;52.270;10.546;2022-10-30T08:18:27;9.70;;;3.90;;
54454;SDS011;40364;52.270;10.546;2022-10-30T08:20:53;7.97;;;3.67;;
54454;SDS011;40364;52.270;10.546;2022-10-30T08:23:21;11.73;;;3.85;;
54454;SDS011;40364;52.270;10.546;2022-10-30T08:25:48;14.57;;;3.92;;
54454;SDS011;40364;52.270;10.546;2022-10-30T08:28:14;12.65;;;3.47;;
54454;SDS011;40364;52.270;10.546;2022-10-30T08:30:41;12.88;;;4.40;;
54454;SDS011;40364;52.270;10.546;2022-10-30T08:33:09;10.65;;;3.70;;
54454;SDS011;40364;52.270;10.546;2022-10-30T08:35:37;17.65;;;4.30;;
54454;SDS011;40364;52.270;10.546;2022-10-30T08:38:04;16.50;;;4.00;;
54454;SDS011;40364;52.270;10.546;2022-10-30T08:40:32;10.85;;;4.03;;
54454;SDS011;40364;52.270;10.546;2022-10-30T08:42:58;13.55;;;3.78;;
54454;SDS011;40364;52.270;10.546;2022-10-30T08:45:25;13.98;;;4.93;;
54454;SDS011;40364;52.270;10.546;2022-10-30T08:47:55;13.57;;;4.38;;
54454;SDS011;40364;52.270;10.546;2022-10-30T08:50:22;12.88;;;3.58;;
54454;SDS011;40364;52.270;10.546;2022-10-30T08:52:48;9.18;;;3.78;;
54454;SDS011;40364;52.270;10.546;2022-10-30T08:55:15;15.45;;;4.03;;
54454;SDS011;40364;52.270;10.546;2022-10-30T08:57:43;16.08;;;4.18;;
54454;SDS011;40364;52.270;10.546;2022-10-30T09:00:10;10.75;;;4.22;;
54454;SDS011;40364;52.270;10.546;2022-10-30T09:02:37;12.32;;;3.67;;
54454;SDS011;40364;52.270;10.546;2022-10-30T09:05:04;11.38;;;3.90;;
54454;SDS011;40364;52.270;10.546;2022-10-30T09:07:31;12.30;;;4.50;;
54454;SDS011;40364;52.270;10.546;2022-10-30T09:09:58;13.52;;;4.15;;
54454;SDS011;40364;52.270;10.546;2022-10-30T09:12:25;14.18;;;4.32;;
54454;SDS011;40364;52.270;10.546;2022-10-30T09:14:53;16.73;;;4.10;;
54454;SDS011;40364;52.270;10.546;2022-10-30T09:17:19;19.00;;;4.10;;
54454;SDS011;40364;52.270;10.546;2022-10-30T09:19:46;19.77;;;4.47;;
54454;SDS011;40364;52.270;10.546;2022-10-30T09:22:13;21.98;;;4.88;;
54454;SDS011;40364;52.270;10.546;2022-10-30T09:24:40;9.73;;;4.28;;
54454;SDS011;40364;52.270;10.546;2022-10-30T09:27:06;11.23;;;4.30;;
54454;SDS011;40364;52.270;10.546;2022-10-30T09:29:33;16.55;;;4.60;;
54454;SDS011;40364;52.270;10.546;2022-10-30T09:32:03;18.50;;;4.88;;
54454;SDS011;40364;52.270;10.546;2022-10-30T09:34:32;13.50;;;4.05;;
54454;SDS011;40364;52.270;10.546;2022-10-30T09:36:59;13.20;;;4.07;;
54454;SDS011;40364;52.270;10.546;2022-10-30T09:39:26;15.23;;;4.10;;
54454;SDS011;40364;52.270;10.546;2022-10-30T09:45:04;13.60;;;4.32;;
54454;SDS011;40364;52.270;10.546;2022-10-30T09:47:47;19.00;;;5.00;;
54454;SDS011;40364;52.270;10.546;2022-10-30T09:50:26;15.60;;;4.50;;
54454;SDS011;40364;52.270;10.546;2022-10-30T09:53:01;19.98;;;5.40;;
54454;SDS011;40364;52.270;10.546;2022-10-30T09:55:33;10.80;;;4.38;;
54454;SDS011;40364;52.270;10.546;2022-10-30T09:58:11;16.73;;;4.75;;
54454;SDS011;40364;52.270;10.546;2022-10-30T10:00:46;17.15;;;5.35;;
54454;SDS011;40364;52.270;10.546;2022-10-30T10:03:22;21.02;;;4.38;;
54454;SDS011;40364;52.270;10.546;2022-10-30T10:05:58;11.90;;;4.32;;
54454;SDS011;40364;52.270;10.546;2022-10-30T10:08:29;13.45;;;3.97;;
54454;SDS011;40364;52.270;10.546;2022-10-30T10:11:01;11.27;;;3.75;;
54454;SDS011;40364;52.270;10.546;2022-10-30T10:13:32;16.80;;;3.67;;
54454;SDS011;40364;52.270;10.546;2022-10-30T10:16:04;9.80;;;4.00;;
54454;SDS011;40364;52.270;10.546;2022-10-30T10:18:42;14.77;;;3.78;;
54454;SDS011;40364;52.270;10.546;2022-10-30T10:21:12;12.65;;;3.40;;
54454;SDS011;40364;52.270;10.546;2022-10-30T10:23:46;11.57;;;3.38;;
54454;SDS011;40364;52.270;10.546;2022-10-30T10:26:18;9.55;;;3.10;;
54454;SDS011;40364;52.270;10.546;2022-10-30T10:29:27;13.90;;;3.95;;
54454;SDS011;40364;52.270;10.546;2022-10-30T10:35:15;10.00;;;3.63;;
54454;SDS011;40364;52.270;10.546;2022-10-30T10:37:51;8.75;;;3.20;;
54454;SDS011;40364;52.270;10.546;2022-10-30T10:40:27;11.45;;;3.28;;
54454;SDS011;40364;52.270;10.546;2022-10-30T10:43:08;9.70;;;3.22;;
54454;SDS011;40364;52.270;10.546;2022-10-30T10:45:43;15.13;;;3.45;;
54454;SDS011;40364;52.270;10.546;2022-10-30T10:51:12;7.28;;;3.30;;
54454;SDS011;40364;52.270;10.546;2022-10-30T10:53:45;16.48;;;3.83;;
54454;SDS011;40364;52.270;10.546;2022-10-30T10:56:16;17.48;;;3.70;;
54454;SDS011;40364;52.270;10.546;2022-10-30T10:58:48;14.73;;;3.60;;
54454;SDS011;40364;52.270;10.546;2022-10-30T11:01:19;10.65;;;3.80;;
54454;SDS011;40364;52.270;10.546;2022-10-30T11:03:53;8.35;;;2.80;;
54454;SDS011;40364;52.270;10.546;2022-10-30T11:06:28;10.85;;;3.45;;
54454;SDS011;40364;52.270;10.546;2022-10-30T11:09:04;14.15;;;3.00;;
54454;SDS011;40364;52.270;10.546;2022-10-30T11:11:40;14.57;;;3.28;;
54454;SDS011;40364;52.270;10.546;2022-10-30T11:14:11;9.38;;;3.17;;
54454;SDS011;40364;52.270;10.546;2022-10-30T11:16:46;9.57;;;3.35;;
54454;SDS011;40364;52.270;10.546;2022-10-30T11:19:23;15.25;;;3.30;;
54454;SDS011;40364;52.270;10.546;2022-10-30T11:21:52;19.38;;;4.13;;
54454;SDS011;40364;52.270;10.546;2022-10-30T11:24:27;15.93;;;4.03;;
54454;SDS011;40364;52.270;10.546;2022-10-30T11:26:56;17.73;;;3.85;;
54454;SDS011;40364;52.270;10.546;2022-10-30T11:29:25;15.80;;;3.28;;
54454;SDS011;40364;52.270;10.546;2022-10-30T11:31:58;11.48;;;4.13;;
54454;SDS011;40364;52.270;10.546;2022-10-30T11:34:30;10.30;;;3.30;;
54454;SDS011;40364;52.270;10.546;2022-10-30T11:37:00;13.85;;;3.15;;
54454;SDS011;40364;52.270;10.546;2022-10-30T11:39:29;10.70;;;4.32;;
54454;SDS011;40364;52.270;10.546;2022-10-30T11:42:02;14.10;;;3.50;;
54454;SDS011;40364;52.270;10.546;2022-10-30T11:44:32;12.20;;;3.38;;
54454;SDS011;40364;52.270;10.546;2022-10-30T11:47:02;18.77;;;3.67;;
54454;SDS011;40364;52.270;10.546;2022-10-30T11:49:38;14.30;;;3.78;;
54454;SDS011;40364;52.270;10.546;2022-10-30T11:52:11;9.40;;;3.83;;
54454;SDS011;40364;52.270;10.546;2022-10-30T11:54:40;10.23;;;3.45;;
54454;SDS011;40364;52.270;10.546;2022-10-30T11:57:22;17.73;;;3.83;;
54454;SDS011;40364;52.270;10.546;2022-10-30T11:59:53;9.27;;;3.17;;
54454;SDS011;40364;52.270;10.546;2022-10-30T12:02:22;9.52;;;3.13;;
54454;SDS011;40364;52.270;10.546;2022-10-30T12:04:52;9.60;;;2.83;;
54454;SDS011;40364;52.270;10.546;2022-10-30T12:07:25;10.07;;;3.20;;
54454;SDS011;40364;52.270;10.546;2022-10-30T12:09:55;10.27;;;3.03;;
54454;SDS011;40364;52.270;10.546;2022-10-30T12:12:25;13.07;;;3.53;;
54454;SDS011;40364;52.270;10.546;2022-10-30T12:14:57;9.80;;;3.38;;
54454;SDS011;40364;52.270;10.546;2022-10-30T12:17:36;14.52;;;3.38;;
54454;SDS011;40364;52.270;10.546;2022-10-30T12:20:04;14.77;;;3.40;;
54454;SDS011;40364;52.270;10.546;2022-10-30T12:22:34;9.27;;;3.33;;
54454;SDS011;40364;52.270;10.546;2022-10-30T12:25:01;15.10;;;4.15;;
54454;SDS011;40364;52.270;10.546;2022-10-30T12:27:30;12.43;;;3.60;;
54454;SDS011;40364;52.270;10.546;2022-10-30T12:30:03;10.70;;;3.70;;
54454;SDS011;40364;52.270;10.546;2022-10-30T12:32:44;9.27;;;3.25;;
54454;SDS011;40364;52.270;10.546;2022-10-30T12:35:19;8.88;;;3.50;;
54454;SDS011;40364;52.270;10.546;2022-10-30T12:37:53;9.57;;;3.03;;
54454;SDS011;40364;52.270;10.546;2022-10-30T12:40:24;9.75;;;3.30;;
54454;SDS011;40364;52.270;10.546;2022-10-30T12:42:56;15.90;;;4.18;;
54454;SDS011;40364;52.270;10.546;2022-10-30T12:45:30;12.77;;;4.07;;
54454;SDS011;40364;52.270;10.546;2022-10-30T12:48:00;8.98;;;3.60;;
54454;SDS011;40364;52.270;10.546;2022-10-30T12:50:34;14.48;;;3.60;;
54454;SDS011;40364;52.270;10.546;2022-10-30T12:53:21;8.68;;;3.58;;
54454;SDS011;40364;52.270;10.546;2022-10-30T12:55:56;17.65;;;3.47;;
54454;SDS011;40364;52.270;10.546;2022-10-30T12:58:30;19.23;;;3.50;;
54454;SDS011;40364;52.270;10.546;2022-10-30T13:01:05;11.77;;;3.38;;
54454;SDS011;40364;52.270;10.546;2022-10-30T13:03:45;15.43;;;3.42;;
54454;SDS011;40364;52.270;10.546;2022-10-30T13:06:19;10.32;;;3.90;;
54454;SDS011;40364;52.270;10.546;2022-10-30T13:08:56;8.45;;;3.42;;
54454;SDS011;40364;52.270;10.546;2022-10-30T13:11:33;15.95;;;3.75;;
54454;SDS011;40364;52.270;10.546;2022-10-30T13:14:08;10.57;;;3.50;;
54454;SDS011;40364;52.270;10.546;2022-10-30T13:16:38;16.17;;;3.75;;
54454;SDS011;40364;52.270;10.546;2022-10-30T13:19:07;12.75;;;3.80;;
54454;SDS011;40364;52.270;10.546;2022-10-30T13:21:37;12.82;;;3.83;;
54454;SDS011;40364;52.270;10.546;2022-10-30T13:24:10;8.85;;;3.40;;
54454;SDS011;40364;52.270;10.546;2022-10-30T13:26:40;14.00;;;3.72;;
54454;SDS011;40364;52.270;10.546;2022-10-30T13:29:14;9.77;;;3.20;;
54454;SDS011;40364;52.270;10.546;2022-10-30T13:31:54;13.88;;;3.60;;
54454;SDS011;40364;52.270;10.546;2022-10-30T13:34:30;13.32;;;3.83;;
54454;SDS011;40364;52.270;10.546;2022-10-30T13:37:06;11.32;;;3.00;;
54454;SDS011;40364;52.270;10.546;2022-10-30T13:39:42;12.75;;;3.20;;
54454;SDS011;40364;52.270;10.546;2022-10-30T13:42:30;15.70;;;3.70;;
54454;SDS011;40364;52.270;10.546;2022-10-30T13:45:12;20.77;;;3.65;;
54454;SDS011;40364;52.270;10.546;2022-10-30T13:47:54;11.57;;;3.50;;
54454;SDS011;40364;52.270;10.546;2022-10-30T13:50:35;12.93;;;3.38;;
54454;SDS011;40364;52.270;10.546;2022-10-30T13:53:13;15.50;;;3.92;;
54454;SDS011;40364;52.270;10.546;2022-10-30T13:55:45;12.32;;;3.40;;
54454;SDS011;40364;52.270;10.546;2022-10-30T13:58:15;11.68;;;3.63;;
54454;SDS011;40364;52.270;10.546;2022-10-30T14:00:56;9.85;;;3.35;;
54454;SDS011;40364;52.270;10.546;2022-10-30T14:03:32;10.77;;;3.20;;
54454;SDS011;40364;52.270;10.546;2022-10-30T14:06:09;13.70;;;3.58;;
54454;SDS011;40364;52.270;10.546;2022-10-30T14:08:42;9.80;;;3.17;;
54454;SDS011;40364;52.270;10.546;2022-10-30T14:11:18;8.25;;;3.47;;
54454;SDS011;40364;52.270;10.546;2022-10-30T14:13:48;12.13;;;3.55;;
54454;SDS011;40364;52.270;10.546;2022-10-30T14:19:08;14.10;;;3.63;;
54454;SDS011;40364;52.270;10.546;2022-10-30T14:21:36;8.18;;;3.67;;
54454;SDS011;40364;52.270;10.546;2022-10-30T14:24:14;14.63;;;3.60;;
54454;SDS011;40364;52.270;10.546;2022-10-30T14:26:48;12.70;;;4.45;;
54454;SDS011;40364;52.270;10.546;2022-10-30T14:35:35;12.40;;;4.25;;
54454;SDS011;40364;52.270;10.546;2022-10-30T14:38:23;13.73;;;3.80;;
54454;SDS011;40364;52.270;10.546;2022-10-30T14:47:02;10.30;;;3.75;;
54454;SDS011;40364;52.270;10.546;2022-10-30T14:49:46;13.77;;;4.00;;
54454;SDS011;40364;52.270;10.546;2022-10-30T14:52:19;9.48;;;4.10;;
54454;SDS011;40364;52.270;10.546;2022-10-30T14:54:57;10.95;;;3.75;;
54454;SDS011;40364;52.270;10.546;2022-10-30T14:57:43;18.27;;;4.47;;
54454;SDS011;40364;52.270;10.546;2022-10-30T15:03:14;14.43;;;3.67;;
54454;SDS011;40364;52.270;10.546;2022-10-30T15:05:57;15.73;;;4.47;;
54454;SDS011;40364;52.270;10.546;2022-10-30T15:08:32;15.40;;;3.92;;
54454;SDS011;40364;52.270;10.546;2022-10-30T15:11:15;14.38;;;4.57;;
54454;SDS011;40364;52.270;10.546;2022-10-30T15:13:52;12.63;;;4.45;;
54454;SDS011;40364;52.270;10.546;2022-10-30T15:16:22;11.73;;;4.15;;